Time;durP1;ratioP1;P1;durP2;ratioP2;P2;SDS_P1;SDS_P2;PMS_P1;PMS_P2;Temp;Humidity;BMP_temperature;BMP_pressure;BME280_temperature;BME280_humidity;BME280_pressure;Samples;Min_cycle;Max_cycle;Signal;HPM_P1;HPM_P2
2022/04/19 00:01:04;;;;;;;6.53;5.57;;;9.00;99.90;;;;;;5091290;28;20055;-76
2022/04/19 00:03:30;;;;;;;9.90;5.85;;;9.00;99.90;;;;;;5111506;28;20063;-76
2022/04/19 00:05:56;;;;;;;6.72;5.38;;;9.00;99.90;;;;;;5111058;28;20123;-76
2022/04/19 00:08:21;;;;;;;8.25;5.75;;;9.00;99.90;;;;;;5094470;28;20079;-76
2022/04/19 00:10:47;;;;;;;8.90;6.07;;;8.90;99.90;;;;;;5095921;28;20035;-77
2022/04/19 00:13:16;;;;;;;7.57;5.32;;;8.90;99.90;;;;;;5126960;28;20044;-76
2022/04/19 00:15:41;;;;;;;5.78;5.15;;;8.90;99.90;;;;;;5108765;28;20051;-77
2022/04/19 00:18:08;;;;;;;9.13;6.13;;;8.90;99.90;;;;;;5116268;28;20043;-77
2022/04/19 00:20:35;;;;;;;6.13;5.03;;;8.90;99.90;;;;;;5105347;28;20047;-76
2022/04/19 00:23:03;;;;;;;6.28;5.25;;;8.90;99.90;;;;;;5121578;28;20371;-76
2022/04/19 00:25:28;;;;;;;6.20;4.95;;;8.90;99.90;;;;;;5117586;28;20040;-77
2022/04/19 00:27:54;;;;;;;8.50;5.93;;;8.80;99.90;;;;;;5111069;28;20483;-76
2022/04/19 00:30:19;;;;;;;7.55;6.25;;;8.80;99.90;;;;;;5110588;28;20490;-76
2022/04/19 00:32:46;;;;;;;9.15;6.05;;;8.70;99.90;;;;;;5111122;28;20048;-77
2022/04/19 00:35:12;;;;;;;10.60;6.22;;;8.70;99.90;;;;;;5092288;28;20644;-76
2022/04/19 00:37:39;;;;;;;7.38;5.68;;;8.70;99.90;;;;;;5110528;28;20043;-76
2022/04/19 00:40:07;;;;;;;8.85;5.75;;;8.60;99.90;;;;;;5092398;28;20051;-77
2022/04/19 00:42:33;;;;;;;8.02;5.45;;;8.60;99.90;;;;;;5110141;28;20796;-77
2022/04/19 00:45:05;;;;;;;10.95;5.57;;;8.60;99.90;;;;;;5092695;28;20409;-77
2022/04/19 00:47:40;;;;;;;8.25;6.10;;;8.60;99.90;;;;;;5111101;28;20096;-76
2022/04/19 00:50:07;;;;;;;6.88;5.70;;;8.50;99.90;;;;;;5091511;28;20046;-76
2022/04/19 00:52:40;;;;;;;9.20;6.38;;;8.50;99.90;;;;;;5092235;28;20518;-76
2022/04/19 00:55:07;;;;;;;12.70;6.93;;;8.40;99.90;;;;;;5094168;28;20479;-76
2022/04/19 00:57:35;;;;;;;7.53;6.00;;;8.40;99.90;;;;;;5093821;28;20048;-76
2022/04/19 01:00:01;;;;;;;8.80;6.53;;;8.40;99.90;;;;;;5093182;28;20131;-76
2022/04/19 01:02:26;;;;;;;7.32;6.05;;;8.40;99.90;;;;;;5092993;28;20135;-76
2022/04/19 01:04:55;;;;;;;8.75;6.43;;;8.30;99.90;;;;;;5093203;28;20079;-76
2022/04/19 01:07:22;;;;;;;8.60;6.80;;;8.30;99.90;;;;;;5093014;28;20479;-76
2022/04/19 01:09:48;;;;;;;9.82;6.18;;;8.30;99.90;;;;;;5094258;28;20119;-76
2022/04/19 01:15:05;;;;;;;10.95;6.25;;;8.20;99.90;;;;;;5092773;28;20056;-76
2022/04/19 01:17:34;;;;;;;10.43;6.50;;;8.10;99.90;;;;;;5093433;28;20055;-77
2022/04/19 01:20:01;;;;;;;9.75;6.80;;;8.10;99.90;;;;;;5093497;28;20055;-75
2022/04/19 01:22:26;;;;;;;9.10;6.05;;;8.10;99.90;;;;;;5094777;28;20048;-75
2022/04/19 01:24:52;;;;;;;7.95;6.03;;;8.00;99.90;;;;;;5093733;28;20044;-75
2022/04/19 01:27:18;;;;;;;10.35;7.15;;;8.00;99.90;;;;;;5093607;28;20048;-75
2022/04/19 01:29:45;;;;;;;7.28;5.53;;;8.00;99.90;;;;;;5093341;28;20123;-75
2022/04/19 01:32:13;;;;;;;9.43;6.47;;;7.90;99.90;;;;;;5092400;28;20084;-75
2022/04/19 01:34:39;;;;;;;8.65;6.30;;;7.90;99.90;;;;;;5094797;28;20048;-75
2022/04/19 01:37:04;;;;;;;7.63;6.00;;;7.90;99.90;;;;;;5093217;28;20075;-75
2022/04/19 01:42:14;;;;;;;8.57;6.78;;;7.80;99.90;;;;;;5094010;28;20052;-75
2022/04/19 01:44:41;;;;;;;7.65;6.85;;;7.70;99.90;;;;;;5094343;28;20471;-75
2022/04/19 01:47:07;;;;;;;9.43;6.85;;;7.70;99.90;;;;;;5092348;28;20131;-75
2022/04/19 01:49:34;;;;;;;7.45;6.15;;;7.60;99.90;;;;;;5094426;28;20044;-75
2022/04/19 01:52:01;;;;;;;9.60;7.13;;;7.60;99.90;;;;;;5092607;28;20063;-75
2022/04/19 01:54:29;;;;;;;10.65;7.28;;;7.60;99.90;;;;;;5092168;28;20127;-75
2022/04/19 01:56:55;;;;;;;8.73;6.38;;;7.60;99.90;;;;;;5093841;28;20067;-76
2022/04/19 01:59:26;;;;;;;10.10;6.38;;;7.50;99.90;;;;;;5094348;28;20364;-76
2022/04/19 02:01:52;;;;;;;11.83;7.53;;;7.50;99.90;;;;;;5091679;28;20052;-76
2022/04/19 02:04:18;;;;;;;10.23;6.65;;;7.50;99.90;;;;;;5091889;28;20054;-76
2022/04/19 02:06:44;;;;;;;8.30;6.32;;;7.50;99.90;;;;;;5093386;28;20092;-76
2022/04/19 02:09:10;;;;;;;9.27;6.63;;;7.50;99.90;;;;;;5092569;28;20044;-76
2022/04/19 02:11:37;;;;;;;9.80;6.95;;;7.50;99.90;;;;;;5092572;28;20048;-76
2022/04/19 02:14:04;;;;;;;9.95;6.05;;;7.50;99.90;;;;;;5093040;28;20052;-76
2022/04/19 02:16:31;;;;;;;14.07;7.75;;;7.50;99.90;;;;;;5093870;28;20044;-76
2022/04/19 02:18:57;;;;;;;10.75;7.28;;;7.50;99.90;;;;;;5093577;28;20384;-75
2022/04/19 02:21:23;;;;;;;11.20;7.40;;;7.40;99.90;;;;;;5092904;28;20047;-75
2022/04/19 02:23:49;;;;;;;10.82;7.00;;;7.40;99.90;;;;;;5093601;28;20494;-75
2022/04/19 02:26:15;;;;;;;10.25;7.38;;;7.40;99.90;;;;;;5093232;28;20119;-75
2022/04/19 02:28:40;;;;;;;8.60;6.75;;;7.30;99.90;;;;;;5091787;28;20583;-76
2022/04/19 02:31:09;;;;;;;9.98;6.70;;;8.50;99.90;;;;;;5091914;28;20044;-75
2022/04/19 02:33:34;;;;;;;9.27;7.05;;;7.30;99.90;;;;;;5093520;28;20048;-75
2022/04/19 02:36:00;;;;;;;10.93;6.78;;;7.30;99.90;;;;;;5091452;28;20144;-76
2022/04/19 02:38:26;;;;;;;9.32;6.65;;;7.20;99.90;;;;;;5093240;28;20068;-75
2022/04/19 02:40:51;;;;;;;9.73;6.43;;;7.20;99.90;;;;;;5093176;28;20063;-76
2022/04/19 02:43:17;;;;;;;9.45;7.40;;;7.20;99.90;;;;;;5092632;28;20522;-76
2022/04/19 02:45:43;;;;;;;10.52;7.20;;;7.20;99.90;;;;;;5091862;28;20399;-76
2022/04/19 02:48:08;;;;;;;10.95;7.50;;;7.10;99.90;;;;;;5091622;28;20139;-76
2022/04/19 02:50:41;;;;;;;10.18;7.57;;;7.10;99.90;;;;;;5094670;28;20040;-76
2022/04/19 02:53:06;;;;;;;10.00;7.40;;;7.10;99.90;;;;;;5094659;28;20482;-75
2022/04/19 02:55:32;;;;;;;8.05;6.03;;;7.10;99.90;;;;;;5113611;28;20047;-75
2022/04/19 02:57:58;;;;;;;28.23;7.38;;;7.10;99.90;;;;;;5094047;28;20040;-75
2022/04/19 03:00:24;;;;;;;9.48;6.97;;;7.00;99.90;;;;;;5113365;28;20440;-76
2022/04/19 03:02:51;;;;;;;8.23;6.03;;;7.00;99.90;;;;;;5113160;28;20039;-76
2022/04/19 03:05:18;;;;;;;7.57;5.97;;;7.10;99.90;;;;;;5094251;28;20042;-75
2022/04/19 03:07:44;;;;;;;9.52;6.22;;;7.10;99.90;;;;;;5094974;28;20055;-76
2022/04/19 03:10:09;;;;;;;7.03;5.95;;;7.10;99.90;;;;;;5094121;28;20050;-75
2022/04/19 03:12:35;;;;;;;9.43;7.10;;;7.10;99.90;;;;;;5113287;28;20039;-76
2022/04/19 03:15:00;;;;;;;9.10;6.03;;;7.10;99.90;;;;;;5112653;28;20402;-75
2022/04/19 03:17:26;;;;;;;9.07;6.53;;;7.20;99.90;;;;;;5094062;28;20050;-75
2022/04/19 03:19:52;;;;;;;10.55;6.32;;;7.20;99.90;;;;;;5094129;28;20086;-76
2022/04/19 03:22:18;;;;;;;10.23;6.43;;;7.20;99.90;;;;;;5112755;28;20086;-75
2022/04/19 03:27:43;;;;;;;8.85;6.40;;;7.10;99.90;;;;;;5094612;28;20059;-75
2022/04/19 03:30:14;;;;;;;8.15;5.57;;;7.10;99.90;;;;;;5112590;28;20117;-75
2022/04/19 03:32:42;;;;;;;10.85;6.75;;;7.10;99.90;;;;;;5111953;28;20032;-75
2022/04/19 03:35:08;;;;;;;8.88;6.63;;;7.10;99.90;;;;;;5094283;28;20043;-75
2022/04/19 03:37:34;;;;;;;7.97;5.68;;;7.10;99.90;;;;;;5094309;28;20047;-75
2022/04/19 03:39:59;;;;;;;8.68;6.13;;;7.10;99.90;;;;;;5111689;28;20038;-75
2022/04/19 03:42:25;;;;;;;8.57;6.22;;;7.00;99.90;;;;;;5094275;28;20047;-75
2022/04/19 03:44:50;;;;;;;7.03;5.55;;;7.00;99.90;;;;;;5112423;28;20047;-75
2022/04/19 03:47:16;;;;;;;9.57;6.15;;;7.00;99.90;;;;;;5093705;28;20047;-75
2022/04/19 03:49:42;;;;;;;8.15;5.95;;;7.00;99.90;;;;;;5094289;28;20040;-75
2022/04/19 03:52:07;;;;;;;8.23;5.93;;;7.00;99.90;;;;;;5111723;28;20536;-75
2022/04/19 03:54:34;;;;;;;7.53;6.40;;;7.00;99.90;;;;;;5111905;28;20043;-75
2022/04/19 03:57:08;;;;;;;9.20;5.95;;;7.00;99.90;;;;;;5093883;28;20039;-76
2022/04/19 03:59:36;;;;;;;8.50;6.22;;;6.90;99.90;;;;;;5111602;28;20390;-75
2022/04/19 04:02:02;;;;;;;10.15;6.15;;;6.90;99.90;;;;;;5093872;28;20422;-75
2022/04/19 04:04:30;;;;;;;8.25;5.45;;;6.90;99.90;;;;;;5093853;28;20073;-75
2022/04/19 04:06:57;;;;;;;8.00;5.97;;;6.90;99.90;;;;;;5092579;28;20050;-75
2022/04/19 04:09:24;;;;;;;8.70;5.95;;;6.80;99.90;;;;;;5093910;28;20054;-75
2022/04/19 04:11:49;;;;;;;7.03;6.05;;;6.80;99.90;;;;;;5112996;28;20084;-76
2022/04/19 04:14:15;;;;;;;8.02;6.18;;;6.80;99.90;;;;;;5131451;28;20043;-75
2022/04/19 04:16:40;;;;;;;7.28;5.47;;;6.80;99.90;;;;;;5116197;28;20035;-75
2022/04/19 04:19:06;;;;;;;8.10;6.05;;;6.70;99.90;;;;;;5093696;28;20499;-75
2022/04/19 04:21:31;;;;;;;11.00;6.70;;;6.70;99.90;;;;;;5104956;28;20046;-75
2022/04/19 04:23:57;;;;;;;8.18;5.80;;;6.70;99.90;;;;;;5113833;28;20051;-75
2022/04/19 04:26:23;;;;;;;7.53;5.80;;;6.70;99.90;;;;;;5134055;27;20039;-75
2022/04/19 04:28:48;;;;;;;9.75;6.93;;;6.60;99.90;;;;;;5135975;27;20430;-75
2022/04/19 04:31:14;;;;;;;10.48;6.93;;;6.60;99.90;;;;;;5136677;27;20359;-75
2022/04/19 04:33:39;;;;;;;10.32;6.22;;;6.50;99.90;;;;;;5133212;27;20055;-76
2022/04/19 04:36:05;;;;;;;8.52;6.53;;;6.60;99.90;;;;;;5113891;27;20050;-75
2022/04/19 04:38:30;;;;;;;9.77;6.97;;;6.50;99.90;;;;;;5105778;27;20053;-75
2022/04/19 04:40:56;;;;;;;11.02;7.00;;;6.60;99.90;;;;;;5129699;27;20043;-75
2022/04/19 04:43:22;;;;;;;10.02;7.03;;;6.50;99.90;;;;;;5127144;27;20058;-75
2022/04/19 04:49:35;;;;;;;10.20;6.43;;;6.50;99.90;;;;;;5115770;27;20130;-75
2022/04/19 04:51:20;;;;;;;7.97;6.45;;;6.50;99.90;;;;;;5077089;28;20048;-75
2022/04/19 04:53:45;;;;;;;8.57;5.63;;;6.50;99.90;;;;;;5095378;28;20466;-76
2022/04/19 04:56:11;;;;;;;9.52;6.65;;;6.50;99.90;;;;;;5076034;28;20101;-75
2022/04/19 04:58:37;;;;;;;10.55;6.60;;;6.40;99.90;;;;;;5077225;28;20130;-76
2022/04/19 05:01:02;;;;;;;10.88;6.88;;;6.50;99.90;;;;;;5095053;28;20044;-75
2022/04/19 05:03:28;;;;;;;9.18;6.40;;;6.50;99.90;;;;;;5076308;28;20478;-75
2022/04/19 05:05:53;;;;;;;10.82;6.88;;;6.50;99.90;;;;;;5076709;28;20064;-75
2022/04/19 05:08:19;;;;;;;7.65;5.82;;;6.50;99.90;;;;;;5092830;28;20035;-75
2022/04/19 05:10:44;;;;;;;8.93;7.03;;;6.60;99.90;;;;;;5118495;27;20040;-76
2022/04/19 05:13:10;;;;;;;10.43;6.35;;;6.60;99.90;;;;;;5107463;28;20081;-75
2022/04/19 05:15:35;;;;;;;9.13;6.35;;;6.70;99.90;;;;;;5097078;28;20043;-75
2022/04/19 05:18:01;;;;;;;11.02;6.60;;;6.70;99.90;;;;;;5125305;27;20456;-76
2022/04/19 05:20:27;;;;;;;11.65;6.68;;;6.80;99.90;;;;;;5117421;27;20117;-75
2022/04/19 05:22:55;;;;;;;10.93;6.82;;;6.80;99.90;;;;;;5110126;27;20066;-76
2022/04/19 05:25:21;;;;;;;8.18;5.82;;;6.80;99.90;;;;;;5101808;28;20050;-75
2022/04/19 05:27:46;;;;;;;9.05;6.90;;;6.90;99.90;;;;;;5113897;27;20052;-75
2022/04/19 05:30:12;;;;;;;10.40;6.45;;;6.90;99.90;;;;;;5097691;28;20050;-75
2022/04/19 05:32:37;;;;;;;9.48;6.65;;;7.00;99.90;;;;;;5107926;27;20044;-75
2022/04/19 05:35:09;;;;;;;10.77;6.88;;;7.00;99.90;;;;;;5096349;28;20079;-76
2022/04/19 05:37:38;;;;;;;12.52;7.57;;;7.10;99.90;;;;;;5096562;28;20504;-75
2022/04/19 05:40:07;;;;;;;12.52;7.13;;;7.10;99.90;;;;;;5114464;28;20050;-75
2022/04/19 05:42:33;;;;;;;9.85;7.45;;;7.10;99.90;;;;;;5096588;28;20142;-75
2022/04/19 05:44:58;;;;;;;11.40;6.57;;;7.20;99.90;;;;;;5095842;28;20131;-76
2022/04/19 05:47:24;;;;;;;11.65;6.82;;;7.30;99.90;;;;;;5114728;28;20044;-76
2022/04/19 05:49:51;;;;;;;10.63;7.82;;;7.30;99.90;;;;;;5119994;27;20118;-75
2022/04/19 05:52:17;;;;;;;14.50;7.10;;;7.40;99.90;;;;;;5106966;28;20055;-75
2022/04/19 05:54:43;;;;;;;11.65;7.22;;;7.40;99.90;;;;;;5134521;27;20047;-75
2022/04/19 05:57:11;;;;;;;13.95;7.22;;;7.50;99.90;;;;;;5135000;27;20122;-75
2022/04/19 05:59:37;;;;;;;10.30;7.65;;;7.60;99.90;;;;;;5120418;27;20079;-75
2022/04/19 06:04:54;;;;;;;13.52;7.97;;;7.70;99.90;;;;;;5104216;27;20051;-75
2022/04/19 06:07:23;;;;;;;10.55;7.13;;;7.80;99.90;;;;;;5119698;27;20138;-76
2022/04/19 06:09:49;;;;;;;10.70;7.50;;;7.90;99.90;;;;;;5090207;28;20079;-76
2022/04/19 06:12:15;;;;;;;13.95;7.75;;;8.00;99.90;;;;;;5107975;27;20489;-76
2022/04/19 06:14:41;;;;;;;11.30;7.63;;;8.10;99.90;;;;;;5128111;27;20036;-78
2022/04/19 06:17:07;;;;;;;14.35;8.45;;;8.10;99.90;;;;;;5104198;27;20180;-77
2022/04/19 06:19:32;;;;;;;11.95;8.13;;;8.20;99.90;;;;;;5116561;27;20058;-77
2022/04/19 06:21:58;;;;;;;13.30;7.60;;;8.30;99.90;;;;;;5114909;27;20036;-76
2022/04/19 06:24:24;;;;;;;14.30;8.65;;;8.30;99.90;;;;;;5101700;28;20035;-76
2022/04/19 06:26:50;;;;;;;16.30;8.27;;;8.40;99.90;;;;;;5110825;27;20038;-76
2022/04/19 06:29:16;;;;;;;13.80;7.65;;;8.50;99.90;;;;;;5117111;27;20470;-76
2022/04/19 06:31:43;;;;;;;11.57;7.68;;;8.60;99.90;;;;;;5092771;28;20048;-77
2022/04/19 06:34:09;;;;;;;13.77;8.23;;;8.70;99.90;;;;;;5120948;27;20031;-84
2022/04/19 06:36:35;;;;;;;17.17;7.35;;;8.80;99.90;;;;;;5117217;27;20096;-77
2022/04/19 06:39:09;;;;;;;12.27;8.43;;;8.90;99.90;;;;;;5097141;28;20055;-77
2022/04/19 06:41:35;;;;;;;11.95;7.70;;;9.10;99.90;;;;;;5112179;27;20036;-78
2022/04/19 06:44:00;;;;;;;8.45;7.00;;;9.10;99.90;;;;;;5105617;27;20116;-76
2022/04/19 06:46:26;;;;;;;12.15;8.05;;;9.20;99.90;;;;;;5119808;27;20062;-77
2022/04/19 06:48:55;;;;;;;13.27;7.68;;;9.30;99.90;;;;;;5118547;27;20043;-74
2022/04/19 06:51:22;;;;;;;12.00;8.27;;;9.50;99.90;;;;;;5125539;27;20443;-77
2022/04/19 06:53:48;;;;;;;10.27;7.28;;;9.50;99.90;;;;;;5134180;27;20067;-77
2022/04/19 06:56:18;;;;;;;10.75;7.05;;;9.60;99.90;;;;;;5117798;27;20135;-77
2022/04/19 06:58:44;;;;;;;10.25;7.65;;;9.80;99.90;;;;;;5113345;28;20040;-77
2022/04/19 07:01:10;;;;;;;10.30;7.10;;;9.90;99.90;;;;;;5106781;27;20594;-77
2022/04/19 07:03:37;;;;;;;11.35;7.03;;;10.00;99.90;;;;;;5114772;27;20096;-78
2022/04/19 07:06:03;;;;;;;10.73;7.55;;;10.10;99.90;;;;;;5119277;27;20039;-71
2022/04/19 07:08:29;;;;;;;12.20;7.43;;;10.20;99.90;;;;;;5111336;28;20053;-69
2022/04/19 07:10:56;;;;;;;11.75;7.20;;;10.30;99.90;;;;;;5118694;27;20385;-70
2022/04/19 07:13:22;;;;;;;8.57;6.28;;;10.50;99.90;;;;;;5133015;27;20035;-69
2022/04/19 07:15:48;;;;;;;9.30;6.13;;;10.60;99.90;;;;;;5133825;27;20465;-75
2022/04/19 07:18:15;;;;;;;8.80;6.35;;;10.70;99.90;;;;;;5132604;27;20088;-68
2022/04/19 07:28:53;;;;;;;5.53;4.45;;;11.30;99.90;;;;;;5114454;27;20815;-76
2022/04/19 07:31:19;;;;;;;8.15;5.57;;;11.50;99.90;;;;;;5132656;27;20047;-76
2022/04/19 07:33:44;;;;;;;7.72;5.13;;;11.60;99.90;;;;;;5112094;27;20093;-75
2022/04/19 07:36:11;;;;;;;6.10;5.38;;;11.80;99.90;;;;;;5112463;28;20043;-75
2022/04/19 07:38:37;;;;;;;7.95;4.85;;;11.90;99.90;;;;;;5093635;28;20039;-75
2022/04/19 07:41:04;;;;;;;9.35;5.68;;;12.00;99.90;;;;;;5093959;28;20134;-75
2022/04/19 07:43:30;;;;;;;9.07;5.00;;;12.10;99.90;;;;;;5112651;28;20067;-75
2022/04/19 07:45:56;;;;;;;6.82;5.05;;;12.20;99.90;;;;;;5111931;28;20122;-75
2022/04/19 07:48:21;;;;;;;6.80;4.60;;;12.30;99.90;;;;;;5122655;27;20127;-75
2022/04/19 07:50:47;;;;;;;9.15;4.20;;;12.50;99.90;;;;;;5114710;27;20459;-75
2022/04/19 07:53:12;;;;;;;6.97;4.30;;;12.50;99.90;;;;;;5095008;28;20097;-75
2022/04/19 07:55:38;;;;;;;4.82;3.92;;;12.60;99.90;;;;;;5093504;28;20051;-75
2022/04/19 07:58:04;;;;;;;5.45;4.18;;;12.70;99.90;;;;;;5093781;28;20549;-76
2022/04/19 08:00:30;;;;;;;9.02;4.57;;;12.60;99.90;;;;;;5125428;27;20039;-75
2022/04/19 08:02:56;;;;;;;6.60;5.15;;;12.70;99.90;;;;;;5098482;28;20481;-74
2022/04/19 08:05:25;;;;;;;6.93;5.40;;;12.80;99.90;;;;;;5095574;28;20475;-74
2022/04/19 08:07:51;;;;;;;7.10;4.72;;;12.90;99.90;;;;;;5073714;28;20533;-73
2022/04/19 08:10:18;;;;;;;5.30;4.72;;;12.90;99.90;;;;;;5081174;28;20044;-74
2022/04/19 08:12:44;;;;;;;6.75;4.72;;;13.00;99.90;;;;;;5091861;28;20043;-73
2022/04/19 08:15:13;;;;;;;12.27;5.47;;;13.00;99.90;;;;;;5093501;28;20062;-73
2022/04/19 08:17:38;;;;;;;5.35;3.85;;;13.10;99.90;;;;;;5094169;28;20055;-73
2022/04/19 08:20:05;;;;;;;4.43;3.35;;;13.30;99.90;;;;;;5092807;28;20048;-74
2022/04/19 08:22:31;;;;;;;5.80;3.38;;;13.30;99.90;;;;;;5093953;28;20054;-73
2022/04/19 08:24:57;;;;;;;3.47;2.70;;;13.40;99.90;;;;;;5111855;28;20039;-73
2022/04/19 08:27:23;;;;;;;3.85;2.97;;;13.50;99.90;;;;;;5093121;28;20441;-73
2022/04/19 08:29:48;;;;;;;5.13;2.92;;;13.50;99.90;;;;;;5091320;28;20052;-74
2022/04/19 08:32:17;;;;;;;3.92;2.90;;;13.70;99.90;;;;;;5091163;28;20491;-73
2022/04/19 08:34:45;;;;;;;4.70;2.40;;;13.70;99.90;;;;;;5087882;28;20051;-73
2022/04/19 08:37:10;;;;;;;4.97;2.35;;;13.80;99.90;;;;;;5096483;28;20498;-73
2022/04/19 08:39:36;;;;;;;3.42;2.38;;;13.80;99.90;;;;;;5076936;28;20047;-72
2022/04/19 08:42:06;;;;;;;2.75;2.10;;;13.90;99.70;;;;;;5107038;28;20052;-72
2022/04/19 08:44:36;;;;;;;3.17;2.20;;;14.00;98.20;;;;;;5093124;28;20044;-71
2022/04/19 08:47:06;;;;;;;2.88;2.50;;;14.00;97.30;;;;;;5092565;28;20039;-72
2022/04/19 08:49:41;;;;;;;4.20;2.47;;;14.10;94.40;;;;;;5111134;28;20044;-73
2022/04/19 08:52:08;;;;;;;3.25;2.30;;;14.10;92.60;;;;;;5092774;28;20039;-71
2022/04/19 08:57:30;;;;;;;5.07;2.47;;;14.20;91.50;;;;;;5111889;28;20079;-72
2022/04/19 09:00:00;;;;;;;2.83;2.08;;;14.70;91.50;;;;;;5106914;28;20040;-74
2022/04/19 09:02:29;;;;;;;2.15;1.38;;;14.40;87.90;;;;;;5089990;28;20043;-73
2022/04/19 09:05:11;;;;;;;2.72;1.30;;;14.40;79.90;;;;;;5072054;28;20131;-73
2022/04/19 09:07:37;;;;;;;1.42;0.90;;;14.50;75.90;;;;;;5072316;28;20075;-74
2022/04/19 09:10:03;;;;;;;2.08;0.88;;;14.50;73.70;;;;;;5089513;28;20117;-73
2022/04/19 09:12:29;;;;;;;1.58;1.10;;;14.50;70.80;;;;;;5091985;28;20064;-74
2022/04/19 09:14:58;;;;;;;2.60;1.20;;;14.50;71.10;;;;;;5094487;28;20052;-74
2022/04/19 09:17:34;;;;;;;1.77;1.10;;;14.50;72.00;;;;;;5094359;28;20044;-73
2022/04/19 09:20:15;;;;;;;1.33;1.17;;;14.50;70.70;;;;;;5076780;28;20060;-73
2022/04/19 09:22:42;;;;;;;2.72;1.00;;;14.50;70.40;;;;;;5076666;28;20044;-74
2022/04/19 09:25:18;;;;;;;1.80;1.20;;;14.50;70.80;;;;;;5076367;28;20394;-74
2022/04/19 09:27:48;;;;;;;2.95;1.20;;;14.60;70.70;;;;;;5076454;28;20048;-74
2022/04/19 09:30:25;;;;;;;1.10;1.00;;;14.60;70.80;;;;;;5093627;28;20571;-73
2022/04/19 09:33:16;;;;;;;1.50;1.23;;;14.70;71.00;;;;;;5094367;28;20046;-74
2022/04/19 09:35:43;;;;;;;1.70;1.35;;;14.80;73.10;;;;;;5094619;28;20482;-73
2022/04/19 09:38:10;;;;;;;1.88;1.23;;;14.80;73.40;;;;;;5075731;28;20085;-73
2022/04/19 09:40:36;;;;;;;1.85;1.45;;;14.90;72.20;;;;;;5094628;28;20044;-74
2022/04/19 09:43:11;;;;;;;3.67;1.67;;;15.00;72.80;;;;;;5076077;28;20089;-73
2022/04/19 09:45:54;;;;;;;2.75;1.67;;;15.00;70.60;;;;;;5093866;28;20052;-73
2022/04/19 09:48:26;;;;;;;2.15;1.50;;;15.10;69.40;;;;;;5076378;28;20043;-74
2022/04/19 09:51:03;;;;;;;1.88;1.45;;;15.10;70.00;;;;;;5075376;28;20406;-73
2022/04/19 09:53:43;;;;;;;1.85;1.17;;;15.10;71.40;;;;;;5094516;28;20092;-72
2022/04/19 09:56:19;;;;;;;2.88;1.63;;;15.20;70.40;;;;;;5101353;28;20104;-74
2022/04/19 09:58:46;;;;;;;1.42;1.33;;;15.20;69.50;;;;;;5094926;27;20467;-73
2022/04/19 10:09:34;;;;;;;3.08;1.60;;;15.30;71.50;;;;;;5116093;27;20109;-74
2022/04/19 10:12:10;;;;;;;2.10;1.40;;;15.30;70.80;;;;;;5115783;27;20051;-74
2022/04/19 10:14:36;;;;;;;2.03;1.45;;;15.30;68.20;;;;;;5109051;28;20385;-74
2022/04/19 10:17:04;;;;;;;2.08;1.50;;;15.40;70.00;;;;;;5095920;28;20043;-75
2022/04/19 10:19:30;;;;;;;4.63;2.38;;;15.50;70.30;;;;;;5095604;28;20122;-74
2022/04/19 10:22:02;;;;;;;3.35;1.80;;;15.50;70.90;;;;;;5094805;28;20036;-74
2022/04/19 10:24:28;;;;;;;1.83;1.42;;;15.70;73.10;;;;;;5113177;28;20067;-75
2022/04/19 10:26:54;;;;;;;1.83;1.70;;;15.70;73.20;;;;;;5108298;28;20040;-75
2022/04/19 10:29:24;;;;;;;6.90;2.17;;;15.80;71.50;;;;;;5109342;27;20084;-75
2022/04/19 10:31:58;;;;;;;1.98;1.40;;;15.90;72.50;;;;;;5095933;28;20047;-75
2022/04/19 10:34:26;;;;;;;2.80;1.55;;;16.00;73.10;;;;;;5102685;27;20041;-74
2022/04/19 10:36:54;;;;;;;1.70;1.60;;;16.00;71.80;;;;;;5134226;27;20043;-77
2022/04/19 10:39:30;;;;;;;1.83;1.50;;;15.90;69.80;;;;;;5113856;27;20047;-76
2022/04/19 10:41:56;;;;;;;2.22;1.52;;;16.00;70.10;;;;;;5094129;28;20135;-76
2022/04/19 10:44:43;;;;;;;2.47;1.40;;;16.00;69.80;;;;;;5095410;28;20134;-79
2022/04/19 10:47:23;;;;;;;7.43;1.60;;;16.00;69.40;;;;;;5074287;28;20059;-76
2022/04/19 10:50:04;;;;;;;1.75;1.52;;;16.00;68.80;;;;;;5093262;28;20040;-74
2022/04/19 10:52:44;;;;;;;2.50;1.45;;;16.00;71.10;;;;;;5074766;28;20044;-75
2022/04/19 10:55:14;;;;;;;1.95;1.85;;;16.00;69.80;;;;;;5073977;28;20052;-75
2022/04/19 11:00:58;;;;;;;2.22;1.58;;;16.00;71.40;;;;;;5115433;27;20126;-76
2022/04/19 11:03:33;;;;;;;3.03;1.58;;;16.10;70.80;;;;;;5083868;28;20517;-72
2022/04/19 11:06:01;;;;;;;1.77;1.60;;;16.10;69.80;;;;;;5092498;28;20050;-73
2022/04/19 11:08:29;;;;;;;2.33;1.92;;;16.20;69.50;;;;;;5114157;27;20185;-74
2022/04/19 11:11:02;;;;;;;2.53;2.00;;;16.20;68.70;;;;;;5126330;27;20036;-75
2022/04/19 11:13:39;;;;;;;3.90;1.92;;;16.20;70.10;;;;;;5094918;28;20044;-75
2022/04/19 11:16:07;;;;;;;3.85;2.08;;;16.30;68.70;;;;;;5112290;28;20035;-75
2022/04/19 11:18:39;;;;;;;2.60;1.77;;;16.30;69.40;;;;;;5094756;28;20138;-75
2022/04/19 11:21:07;;;;;;;2.63;2.40;;;16.30;69.50;;;;;;5094588;28;20436;-76
2022/04/19 11:23:46;;;;;;;2.95;2.60;;;16.30;69.30;;;;;;5094157;27;20047;-75
2022/04/19 11:26:45;;;;;;;2.67;2.47;;;16.30;69.30;;;;;;5114915;27;20047;-75
2022/04/19 11:29:10;;;;;;;2.35;2.15;;;16.50;66.70;;;;;;5067040;28;20433;-73
2022/04/19 11:31:35;;;;;;;9.73;2.35;;;16.40;70.00;;;;;;5098841;28;20047;-73
2022/04/19 11:34:13;;;;;;;2.15;1.60;;;16.50;70.80;;;;;;5092049;28;20503;-73
2022/04/19 11:36:39;;;;;;;1.45;1.35;;;16.50;68.30;;;;;;5073547;28;20048;-73
2022/04/19 11:39:04;;;;;;;2.65;1.80;;;16.60;70.00;;;;;;5092135;28;20051;-74
2022/04/19 11:46:44;;;;;;;2.10;1.90;;;16.40;66.20;;;;;;5073818;28;20406;-73
2022/04/19 11:49:10;;;;;;;2.17;1.98;;;16.40;66.80;;;;;;5073764;28;20042;-73
2022/04/19 11:51:37;;;;;;;3.03;2.45;;;16.50;67.80;;;;;;5073390;28;20071;-73
2022/04/19 11:54:04;;;;;;;4.55;2.58;;;16.60;68.20;;;;;;5091884;28;20052;-73
2022/04/19 11:56:33;;;;;;;2.63;2.42;;;16.70;68.30;;;;;;5074153;28;20055;-77
2022/04/19 11:59:00;;;;;;;2.85;2.30;;;16.80;68.50;;;;;;5091523;27;20049;-75
2022/04/19 12:01:28;;;;;;;3.00;2.80;;;16.80;69.30;;;;;;5092622;28;20036;-74
2022/04/19 12:03:54;;;;;;;3.00;2.60;;;16.90;68.70;;;;;;5100631;27;20075;-76
2022/04/19 12:06:20;;;;;;;3.88;3.15;;;16.90;68.00;;;;;;5099638;28;20390;-75
2022/04/19 12:08:55;;;;;;;6.50;3.95;;;16.90;68.60;;;;;;5112465;28;20044;-77
2022/04/19 12:11:26;;;;;;;2.95;2.65;;;17.00;69.40;;;;;;5130307;27;20045;-72
2022/04/19 12:13:52;;;;;;;4.95;2.88;;;17.10;70.30;;;;;;5085807;28;20071;-73
2022/04/19 12:16:33;;;;;;;3.25;2.92;;;17.10;69.40;;;;;;5103466;28;20490;-74
2022/04/19 12:19:01;;;;;;;4.80;2.78;;;17.10;68.30;;;;;;5102536;28;20048;-73
2022/04/19 12:21:41;;;;;;;3.97;2.75;;;17.10;69.30;;;;;;5083699;28;20048;-73
2022/04/19 12:24:09;;;;;;;2.25;2.05;;;17.20;68.50;;;;;;5090640;28;20051;-74
2022/04/19 12:26:36;;;;;;;5.60;2.15;;;17.20;68.20;;;;;;5090508;28;20055;-74
2022/04/19 12:29:12;;;;;;;2.13;1.60;;;17.30;63.60;;;;;;5072888;28;20040;-76
2022/04/19 12:31:44;;;;;;;2.58;1.92;;;17.30;64.00;;;;;;5083465;28;20509;-76
2022/04/19 12:34:12;;;;;;;4.10;2.00;;;17.30;64.30;;;;;;5110112;28;20085;-76
2022/04/19 12:37:07;;;;;;;2.78;1.90;;;17.20;64.20;;;;;;5108957;28;20123;-75
2022/04/19 12:39:33;;;;;;;3.55;1.83;;;17.20;63.70;;;;;;5078322;28;20051;-75
2022/04/19 12:42:11;;;;;;;3.17;2.00;;;17.30;65.60;;;;;;5109088;28;20127;-76
2022/04/19 12:44:38;;;;;;;2.38;2.05;;;17.30;64.40;;;;;;5093241;28;20055;-76
2022/04/19 12:47:14;;;;;;;2.53;1.30;;;17.40;65.40;;;;;;5093617;28;20078;-76
2022/04/19 12:49:45;;;;;;;1.80;1.70;;;17.40;66.90;;;;;;5116089;28;20040;-75
2022/04/19 12:52:11;;;;;;;1.52;1.42;;;17.60;66.60;;;;;;5097120;28;20142;-77
2022/04/19 12:54:50;;;;;;;4.60;1.48;;;17.70;64.50;;;;;;5101895;27;20043;-75
2022/04/19 12:57:24;;;;;;;2.63;1.65;;;17.70;65.90;;;;;;5107398;28;20047;-76
2022/04/19 12:59:50;;;;;;;3.28;1.60;;;17.80;65.40;;;;;;5121392;27;20074;-75
2022/04/19 13:02:20;;;;;;;3.35;1.73;;;17.90;64.40;;;;;;5131150;27;20054;-76
2022/04/19 13:04:47;;;;;;;3.65;1.55;;;18.00;63.60;;;;;;5097613;28;20093;-76
2022/04/19 13:12:44;;;;;;;2.38;1.98;;;18.00;64.10;;;;;;5136089;27;20485;-76
2022/04/19 13:15:11;;;;;;;2.47;1.48;;;17.90;62.50;;;;;;5116673;27;20088;-77
2022/04/19 13:17:39;;;;;;;2.53;1.85;;;17.80;64.70;;;;;;5117607;27;20046;-76
2022/04/19 13:20:10;;;;;;;8.82;2.05;;;17.90;65.40;;;;;;5116374;27;20082;-76
2022/04/19 13:22:38;;;;;;;2.20;2.00;;;18.00;64.30;;;;;;5135269;27;20039;-76
2022/04/19 13:25:05;;;;;;;1.70;1.58;;;18.00;63.80;;;;;;5135208;27;20066;-76
2022/04/19 13:27:35;;;;;;;2.33;2.13;;;18.00;62.40;;;;;;5117471;27;20478;-76
2022/04/19 13:30:01;;;;;;;2.72;1.90;;;17.90;61.80;;;;;;5134747;27;20046;-76
2022/04/19 13:32:27;;;;;;;2.50;1.90;;;17.90;62.60;;;;;;5117282;27;20060;-77
2022/04/19 13:34:53;;;;;;;2.65;2.45;;;18.00;63.50;;;;;;5116871;27;20092;-76
2022/04/19 13:38:23;;;;;;;6.55;2.88;;;17.90;62.80;;;;;;5135074;27;20049;-76
2022/04/19 13:40:04;;;;;;;2.85;2.25;;;17.90;62.60;;;;;;5135041;27;20450;-76
2022/04/19 13:42:30;;;;;;;5.68;2.30;;;18.00;61.80;;;;;;5116955;27;20043;-76